This is the latest recevied weather packets stored in our database for station/object IU5JAE-13. If no packets are shown the sender has not sent any weather packets the latest 10 day(s).
| Time | Temp. | Humidity | Pressure | Rain* | Wind** | Luminosity | Snow |
|---|---|---|---|---|---|---|---|
| 1777806923 | 17.78° C | 54% | 1020.1 hPa | 0 mm | - | 359 W/m² | - |
| 1777806321 | 17.78° C | 54% | 1020.2 hPa | 0 mm | - | 451 W/m² | - |
| 1777805718 | 18.33° C | 58% | 1020.1 hPa | 0 mm | - | 497 W/m² | - |
| 1777805116 | 17.78° C | 59% | 1020.1 hPa | 0 mm | - | 597 W/m² | - |
| 1777804533 | 17.78° C | 60% | 1020.2 hPa | 0 mm | - | 608 W/m² | - |
| 1777803931 | 18.33° C | 60% | 1020.2 hPa | 0 mm | - | 576 W/m² | - |
| 1777803329 | 18.89° C | 59% | 1020.1 hPa | 0 mm | - | 626 W/m² | - |
| 1777802726 | 17.78° C | 61% | 1020.1 hPa | 0 mm | - | 526 W/m² | - |
| 1777802124 | 17.78° C | 60% | 1020.1 hPa | 0 mm | - | 610 W/m² | - |
| 1777801521 | 17.78° C | 60% | 1020 hPa | 0 mm | - | 609 W/m² | - |
| 1777800919 | 17.78° C | 60% | 1020.1 hPa | 0 mm | - | 578 W/m² | - |
| 1777800316 | 18.33° C | 59% | 1020.1 hPa | 0 mm | - | 622 W/m² | - |
| 1777799734 | 18.33° C | 57% | 1020 hPa | 0 mm | - | 595 W/m² | - |
| 1777799132 | 18.33° C | 55% | 1020 hPa | 0 mm | - | 516 W/m² | - |
| 1777798529 | 19.44° C | 52% | 1019.9 hPa | 0 mm | - | 552 W/m² | - |
| 1777797927 | 19.44° C | 52% | 1020 hPa | 0 mm | - | 513 W/m² | - |
| 1777797324 | 17.78° C | 59% | 1020 hPa | 0 mm | - | 521 W/m² | - |
| 1777796722 | 18.33° C | 58% | 1019.9 hPa | 0 mm | - | 412 W/m² | - |
| 1777796120 | 17.22° C | 60% | 1020.1 hPa | 0 mm | - | 488 W/m² | - |
| 1777795517 | 16.11° C | 62% | 1020 hPa | 0 mm | - | 321 W/m² | - |
| 1777794935 | 16.67° C | 62% | 1020 hPa | 0 mm | - | 491 W/m² | - |
| 1777794332 | 15.56° C | 64% | 1020 hPa | 0 mm | - | 365 W/m² | - |
| 1777793730 | 16.11° C | 62% | 1020 hPa | 0 mm | - | 378 W/m² | - |
| 1777793128 | 15° C | 64% | 1020.2 hPa | 0 mm | - | 332 W/m² | - |
| 1777792525 | 15.56° C | 63% | 1020 hPa | 0 mm | - | 330 W/m² | - |
* Rain latest hour (hover to see other rain measurements)
** Current wind speed in m/s (hover to see current wind gust speed)